JED weather

King Abdulaziz International Airport
Jeddah, Makkah Region, Saudi Arabia

Public forecast

Using degrees Celsius for public forecast. Weather courtesy of forecast.io.

Current aviation weather report (METAR) for King Abdulaziz International Airport

Retrieved 2019/10/23 06:00 UTC (13 minutes ago):

OEJN 230600Z 18004KT CAVOK 32/23 Q1010 NOSIG

Aviation forecast (TAF) for King Abdulaziz International Airport

Retrieved 2019/10/23 06:06 UTC (7 minutes ago):

TAF OEJN 230500Z 2306/2412 24015KT 9999 FEW040 PROB40 TEMPO 2311/2316 VRB25KT 4000 BLDU FEW030CB SCT040 BECMG 2317/2319 08010KT 7000 SCT040